createdAt,value
2023-02-21T00:00:04.957Z,6.40
2023-02-21T00:01:55.368Z,6.70
2023-02-21T00:03:45.912Z,6.07
2023-02-21T00:05:36.334Z,6.30
2023-02-21T00:07:26.736Z,6.60
2023-02-21T00:09:17.186Z,6.95
2023-02-21T00:11:09.042Z,7.00
2023-02-21T00:12:59.567Z,6.57
2023-02-21T00:14:50.103Z,6.95
2023-02-21T00:16:40.604Z,5.65
2023-02-21T00:18:31.027Z,6.90
2023-02-21T00:20:21.462Z,6.90
2023-02-21T00:22:11.769Z,6.45
2023-02-21T00:24:02.164Z,6.07
2023-02-21T00:25:52.490Z,6.53
2023-02-21T00:27:44.529Z,6.40
2023-02-21T00:29:35.098Z,6.88
2023-02-21T00:31:25.520Z,7.22
2023-02-21T00:33:16.050Z,6.32
2023-02-21T00:35:06.471Z,6.70
2023-02-21T00:36:56.899Z,6.72
2023-02-21T00:38:47.354Z,6.25
2023-02-21T00:40:37.948Z,6.78
2023-02-21T00:42:28.413Z,6.82
2023-02-21T00:44:20.164Z,7.13
2023-02-21T00:46:10.668Z,7.05
2023-02-21T00:48:01.081Z,7.50
2023-02-21T00:49:51.545Z,6.90
2023-02-21T00:51:41.996Z,6.85
2023-02-21T00:53:32.408Z,7.53
2023-02-21T00:55:23.253Z,7.63
2023-02-21T00:57:13.687Z,7.13
2023-02-21T00:59:04.139Z,7.07
2023-02-21T01:00:55.895Z,7.75
2023-02-21T01:02:46.373Z,7.80
2023-02-21T01:04:36.829Z,7.75
2023-02-21T01:06:28.775Z,7.50
2023-02-21T01:08:19.245Z,7.55
2023-02-21T01:10:09.664Z,6.80
2023-02-21T01:12:00.021Z,7.75
2023-02-21T01:13:50.477Z,7.25
2023-02-21T01:15:40.982Z,7.60
2023-02-21T01:17:32.881Z,7.10
2023-02-21T01:19:23.256Z,8.10
2023-02-21T01:21:14.073Z,8.50
2023-02-21T01:23:05.254Z,8.00
2023-02-21T01:24:55.684Z,8.80
2023-02-21T01:26:46.054Z,8.40
2023-02-21T01:28:36.409Z,8.43
2023-02-21T01:30:27.357Z,8.70
2023-02-21T01:32:17.861Z,8.52
2023-02-21T01:34:09.715Z,9.27
2023-02-21T01:36:00.150Z,9.07
2023-02-21T01:37:50.621Z,9.23
2023-02-21T01:39:41.067Z,8.25
2023-02-21T01:41:31.641Z,8.25
2023-02-21T01:43:32.001Z,9.15
2023-02-21T01:45:59.792Z,8.80
2023-02-21T01:47:50.968Z,8.77
2023-02-21T01:49:42.748Z,8.20
2023-02-21T01:51:36.369Z,9.07
2023-02-21T01:53:30.731Z,10.05
2023-02-21T01:55:22.176Z,10.35
2023-02-21T01:57:14.637Z,9.15
2023-02-21T01:59:06.883Z,9.45
2023-02-21T02:00:57.787Z,9.85
2023-02-21T02:02:52.482Z,8.73
2023-02-21T02:04:44.269Z,8.77
2023-02-21T02:06:36.012Z,9.10
2023-02-21T02:08:26.353Z,8.65
2023-02-21T02:10:16.803Z,8.80
2023-02-21T02:12:23.477Z,9.13
2023-02-21T02:14:09.828Z,8.75
2023-02-21T02:15:50.397Z,8.65
2023-02-21T02:17:34.715Z,8.32
2023-02-21T02:19:42.559Z,8.60
2023-02-21T02:21:56.803Z,8.48
2023-02-21T02:23:46.224Z,8.82
2023-02-21T02:25:39.527Z,8.57
2023-02-21T02:27:44.650Z,8.30
2023-02-21T02:29:44.377Z,9.00
2023-02-21T02:31:38.654Z,8.30
2023-02-21T02:33:46.897Z,8.10
2023-02-21T02:35:23.446Z,8.55
2023-02-21T02:37:06.014Z,8.70
2023-02-21T02:38:47.390Z,8.40
2023-02-21T02:40:29.106Z,9.27
2023-02-21T02:42:08.893Z,9.07
2023-02-21T02:43:49.575Z,9.45
2023-02-21T02:45:29.537Z,9.05
2023-02-21T02:47:03.683Z,8.45
2023-02-21T02:48:39.462Z,8.93
2023-02-21T02:50:13.968Z,8.82
2023-02-21T02:51:47.819Z,9.55
2023-02-21T02:53:27.158Z,9.00
2023-02-21T02:55:01.812Z,9.05
2023-02-21T02:56:36.789Z,9.07
2023-02-21T02:58:11.517Z,8.98
2023-02-21T02:59:47.653Z,8.80
2023-02-21T03:01:40.653Z,8.25
2023-02-21T03:03:31.443Z,8.40
2023-02-21T03:05:17.144Z,8.73
2023-02-21T03:06:57.499Z,8.90
2023-02-21T03:08:38.328Z,8.63
2023-02-21T03:10:18.599Z,8.50
2023-02-21T03:11:59.387Z,9.13
2023-02-21T03:13:41.093Z,8.85
2023-02-21T03:15:18.988Z,8.43
2023-02-21T03:16:55.388Z,8.80
2023-02-21T03:18:30.801Z,8.68
2023-02-21T03:20:05.130Z,9.15
2023-02-21T03:21:41.843Z,8.25
2023-02-21T03:23:18.453Z,8.93
2023-02-21T03:24:52.111Z,9.23
2023-02-21T03:26:26.343Z,9.20
2023-02-21T03:28:01.294Z,8.63
2023-02-21T03:29:35.052Z,8.35
2023-02-21T03:31:10.527Z,9.60
2023-02-21T03:32:47.774Z,9.32
2023-02-21T03:34:20.622Z,8.93
2023-02-21T03:35:54.503Z,8.68
2023-02-21T03:37:32.831Z,9.13
2023-02-21T03:39:06.993Z,9.73
2023-02-21T03:40:39.672Z,8.73
2023-02-21T03:42:12.365Z,9.30
2023-02-21T03:43:45.124Z,9.55
2023-02-21T03:45:17.229Z,9.38
2023-02-21T03:46:50.012Z,9.70
2023-02-21T03:48:31.582Z,9.20
2023-02-21T03:50:05.872Z,9.43
2023-02-21T03:51:38.553Z,8.77
2023-02-21T03:53:11.738Z,9.45
2023-02-21T03:54:45.872Z,9.93
2023-02-21T03:56:18.559Z,9.77
2023-02-21T03:57:51.269Z,9.30
2023-02-21T03:59:24.004Z,9.93
2023-02-21T04:00:57.630Z,9.38
2023-02-21T04:02:30.480Z,9.20
2023-02-21T04:04:02.290Z,9.05
2023-02-21T04:05:34.981Z,9.80
2023-02-21T04:07:07.652Z,9.30
2023-02-21T04:08:40.354Z,9.77
2023-02-21T04:10:15.320Z,9.55
2023-02-21T04:11:47.565Z,9.80
2023-02-21T04:13:20.426Z,9.70
2023-02-21T04:14:53.174Z,9.25
2023-02-21T04:16:25.947Z,9.90
2023-02-21T04:17:58.758Z,9.25
2023-02-21T04:19:30.666Z,9.55
2023-02-21T04:21:03.372Z,10.15
2023-02-21T04:22:36.067Z,9.63
2023-02-21T04:24:08.844Z,9.07
2023-02-21T04:25:42.878Z,10.02
2023-02-21T04:27:15.969Z,9.77
2023-02-21T04:28:48.849Z,9.27
2023-02-21T04:30:21.629Z,9.20
2023-02-21T04:31:55.644Z,9.05
2023-02-21T04:33:28.361Z,10.00
2023-02-21T04:35:01.067Z,9.27
2023-02-21T04:36:33.957Z,9.35
2023-02-21T04:38:06.678Z,9.50
2023-02-21T04:39:39.345Z,9.48
2023-02-21T04:41:12.807Z,8.88
2023-02-21T04:42:45.666Z,9.15
2023-02-21T04:44:18.438Z,9.45
2023-02-21T04:45:51.275Z,9.63
2023-02-21T04:47:23.101Z,9.48
2023-02-21T04:48:55.899Z,9.40
2023-02-21T04:50:29.302Z,10.38
2023-02-21T04:52:02.032Z,9.50
2023-02-21T04:53:34.696Z,9.75
2023-02-21T04:55:07.863Z,9.77
2023-02-21T04:56:42.015Z,9.65
2023-02-21T04:58:14.728Z,9.98
2023-02-21T04:59:47.476Z,9.63
2023-02-21T05:01:21.294Z,9.45
2023-02-21T05:02:54.016Z,9.90
2023-02-21T05:04:27.051Z,9.98
2023-02-21T05:05:59.872Z,9.90
2023-02-21T05:07:32.561Z,9.40
2023-02-21T05:09:05.685Z,9.98
2023-02-21T05:10:45.397Z,10.40
2023-02-21T05:12:19.612Z,9.75
2023-02-21T05:13:51.933Z,9.93
2023-02-21T05:15:24.814Z,10.13
2023-02-21T05:16:57.526Z,9.27
2023-02-21T05:18:30.196Z,9.40
2023-02-21T05:20:02.123Z,9.85
2023-02-21T05:21:37.463Z,9.93
2023-02-21T05:23:13.781Z,10.05
2023-02-21T05:24:47.355Z,9.88
2023-02-21T05:26:19.081Z,10.88
2023-02-21T05:27:55.365Z,10.40
2023-02-21T05:29:28.196Z,10.27
2023-02-21T05:31:01.421Z,10.10
2023-02-21T05:32:34.230Z,10.23
2023-02-21T05:34:06.941Z,10.23
2023-02-21T05:35:39.601Z,9.98
2023-02-21T05:37:12.590Z,10.40
2023-02-21T05:38:45.138Z,10.57
2023-02-21T05:40:18.590Z,10.27
2023-02-21T05:41:51.891Z,10.68
2023-02-21T05:43:28.127Z,10.55
2023-02-21T05:45:02.359Z,10.80
2023-02-21T05:46:36.173Z,10.35
2023-02-21T05:48:08.896Z,10.23
2023-02-21T05:49:41.851Z,10.63
2023-02-21T05:51:15.031Z,9.93
2023-02-21T05:52:47.911Z,10.85
2023-02-21T05:54:22.264Z,10.93
2023-02-21T05:55:54.934Z,10.68
2023-02-21T05:57:27.637Z,10.82
2023-02-21T05:59:01.656Z,10.60
2023-02-21T06:00:34.338Z,10.75
2023-02-21T06:02:07.030Z,9.70
2023-02-21T06:03:39.911Z,9.60
2023-02-21T06:05:13.258Z,10.45
2023-02-21T06:06:46.320Z,10.65
2023-02-21T06:08:19.059Z,10.55
2023-02-21T06:09:51.796Z,10.40
2023-02-21T06:11:25.912Z,9.65
2023-02-21T06:12:58.600Z,9.90
2023-02-21T06:14:32.660Z,10.27
2023-02-21T06:16:06.111Z,10.65
2023-02-21T06:17:38.850Z,10.02
2023-02-21T06:19:13.526Z,11.05
2023-02-21T06:20:46.276Z,10.65
2023-02-21T06:22:18.951Z,10.68
2023-02-21T06:23:51.661Z,11.63
2023-02-21T06:25:24.346Z,10.55
2023-02-21T06:26:57.173Z,11.20
2023-02-21T06:28:30.534Z,10.68
2023-02-21T06:30:05.013Z,10.60
2023-02-21T06:31:37.806Z,10.38
2023-02-21T06:33:10.600Z,10.55
2023-02-21T06:34:44.753Z,11.10
2023-02-21T06:36:19.018Z,11.23
2023-02-21T06:37:51.727Z,11.75
2023-02-21T06:39:25.018Z,12.13
2023-02-21T06:40:57.714Z,11.45
2023-02-21T06:42:30.481Z,11.80
2023-02-21T06:44:03.194Z,11.50
2023-02-21T06:45:37.239Z,11.88
2023-02-21T06:47:09.935Z,10.80
2023-02-21T06:48:42.638Z,11.60
2023-02-21T06:50:15.338Z,11.60
2023-02-21T06:51:48.051Z,12.05
2023-02-21T06:53:20.781Z,12.13
2023-02-21T06:54:53.818Z,12.07
2023-02-21T06:56:27.150Z,11.48
2023-02-21T06:57:59.840Z,11.07
2023-02-21T06:59:32.937Z,11.35
2023-02-21T07:01:07.026Z,11.73
2023-02-21T07:02:39.748Z,12.55
2023-02-21T07:04:12.919Z,11.70
2023-02-21T07:05:45.650Z,12.20
2023-02-21T07:07:18.460Z,11.32
2023-02-21T07:08:51.238Z,12.27
2023-02-21T07:10:23.959Z,12.30
2023-02-21T07:11:56.802Z,12.45
2023-02-21T07:13:29.694Z,12.50
2023-02-21T07:15:02.419Z,12.52
2023-02-21T07:16:36.436Z,12.55
2023-02-21T07:18:09.157Z,12.60
2023-02-21T07:19:42.104Z,12.70
2023-02-21T07:21:16.273Z,12.23
2023-02-21T07:22:49.141Z,12.73
2023-02-21T07:24:21.880Z,12.32
2023-02-21T07:25:54.585Z,13.05
2023-02-21T07:27:27.350Z,12.43
2023-02-21T07:29:00.054Z,12.98
2023-02-21T07:30:32.892Z,13.90
2023-02-21T07:32:07.093Z,12.40
2023-02-21T07:33:39.879Z,12.70
2023-02-21T07:35:12.754Z,13.57
2023-02-21T07:36:45.455Z,12.70
2023-02-21T07:38:21.955Z,12.32
2023-02-21T07:39:54.735Z,12.07
2023-02-21T07:41:27.402Z,12.88
2023-02-21T07:43:00.118Z,12.73
2023-02-21T07:44:33.374Z,13.75
2023-02-21T07:46:10.074Z,12.88
2023-02-21T07:47:47.863Z,12.00
2023-02-21T07:49:20.811Z,11.52
2023-02-21T07:50:53.550Z,11.50
2023-02-21T07:52:26.268Z,10.48
2023-02-21T07:53:59.041Z,10.43
2023-02-21T07:55:32.996Z,10.98
2023-02-21T07:57:05.721Z,10.38
2023-02-21T07:58:38.537Z,10.93
2023-02-21T08:00:12.128Z,10.88
2023-02-21T08:01:44.881Z,11.18
2023-02-21T08:03:19.595Z,10.70
2023-02-21T08:04:53.543Z,10.10
2023-02-21T08:06:26.260Z,10.67
2023-02-21T08:07:58.965Z,10.13
2023-02-21T08:09:32.076Z,10.43
2023-02-21T08:11:04.883Z,10.17
2023-02-21T08:12:37.717Z,10.47
2023-02-21T08:14:10.422Z,10.57
2023-02-21T08:15:43.119Z,10.47
2023-02-21T08:17:16.047Z,11.73
2023-02-21T08:18:50.707Z,10.90
2023-02-21T08:20:23.414Z,10.23
2023-02-21T08:21:56.120Z,10.13
2023-02-21T08:23:28.883Z,10.90
2023-02-21T08:25:01.643Z,9.97
2023-02-21T08:26:34.523Z,10.43
2023-02-21T08:28:07.424Z,10.27
2023-02-21T08:29:40.545Z,10.23
2023-02-21T08:31:13.921Z,9.93
2023-02-21T08:32:48.218Z,9.80
2023-02-21T08:34:22.278Z,10.13
2023-02-21T08:35:55.060Z,9.93
2023-02-21T08:37:32.809Z,10.37
2023-02-21T08:39:06.483Z,10.40
2023-02-21T08:40:39.243Z,10.17
2023-02-21T08:42:13.501Z,10.17
2023-02-21T08:43:47.732Z,9.80
2023-02-21T08:45:22.553Z,10.70
2023-02-21T08:46:55.298Z,11.27
2023-02-21T08:48:28.038Z,10.93
2023-02-21T08:50:02.420Z,11.50
2023-02-21T08:51:35.666Z,11.97
2023-02-21T08:53:08.527Z,11.57
2023-02-21T08:54:41.408Z,11.50
2023-02-21T08:56:19.043Z,12.13
2023-02-21T08:57:53.564Z,12.00
2023-02-21T08:59:27.731Z,12.37
2023-02-21T09:01:00.485Z,11.60
2023-02-21T09:02:33.655Z,11.73
2023-02-21T09:04:06.990Z,12.83
2023-02-21T09:05:41.013Z,12.53
2023-02-21T09:07:14.046Z,12.00
2023-02-21T09:08:46.762Z,12.77
2023-02-21T09:10:19.794Z,13.07
2023-02-21T09:11:52.512Z,12.43
2023-02-21T09:13:25.224Z,12.97
2023-02-21T09:14:57.935Z,12.43
2023-02-21T09:16:30.704Z,12.20
2023-02-21T09:18:03.438Z,12.33
2023-02-21T09:19:36.283Z,10.67
2023-02-21T09:21:10.302Z,12.20
2023-02-21T09:22:44.900Z,11.60
2023-02-21T09:24:17.636Z,12.20
2023-02-21T09:25:50.688Z,12.43
2023-02-21T09:27:36.226Z,11.80
2023-02-21T09:29:09.023Z,11.67
2023-02-21T09:30:41.883Z,12.17
2023-02-21T09:32:15.225Z,12.20
2023-02-21T09:33:47.967Z,12.37
2023-02-21T09:35:20.741Z,11.77
2023-02-21T09:36:55.910Z,12.47
2023-02-21T09:38:28.596Z,11.90
2023-02-21T09:40:01.762Z,11.37
2023-02-21T09:41:36.390Z,12.10
2023-02-21T09:43:15.067Z,12.40
2023-02-21T09:44:48.846Z,12.10
2023-02-21T09:46:29.789Z,12.53
2023-02-21T09:48:07.191Z,10.97
2023-02-21T09:49:42.599Z,12.37
2023-02-21T09:51:16.488Z,12.00
2023-02-21T09:52:51.046Z,11.93
2023-02-21T09:54:28.799Z,12.27
2023-02-21T09:56:06.235Z,12.00
2023-02-21T09:57:38.985Z,12.40
2023-02-21T09:59:13.304Z,12.73
2023-02-21T10:00:46.960Z,12.67
2023-02-21T10:02:40.827Z,11.97
2023-02-21T10:04:22.487Z,12.73
2023-02-21T10:06:00.955Z,12.93
2023-02-21T10:07:41.979Z,12.80
2023-02-21T10:09:26.076Z,12.47
2023-02-21T10:11:04.850Z,11.57
2023-02-21T10:12:45.868Z,12.87
2023-02-21T10:14:29.728Z,12.57
2023-02-21T10:16:07.696Z,11.90
2023-02-21T10:17:47.878Z,11.43
2023-02-21T10:19:29.818Z,11.83
2023-02-21T10:21:05.611Z,11.73
2023-02-21T10:22:41.203Z,11.63
2023-02-21T10:24:16.316Z,12.77
2023-02-21T10:25:52.891Z,11.80
2023-02-21T10:27:30.827Z,11.03
2023-02-21T10:29:05.835Z,11.57
2023-02-21T10:30:40.905Z,11.77
2023-02-21T10:32:14.761Z,11.40
2023-02-21T10:33:47.536Z,11.57
2023-02-21T10:35:20.298Z,11.30
2023-02-21T10:36:54.556Z,10.13
2023-02-21T10:38:27.879Z,12.10
2023-02-21T10:40:05.275Z,10.83
2023-02-21T10:41:41.866Z,11.03
2023-02-21T10:43:18.824Z,9.73
2023-02-21T10:44:51.984Z,10.77
2023-02-21T10:46:29.169Z,10.70
2023-02-21T10:48:05.051Z,11.57
2023-02-21T10:49:45.090Z,11.47
2023-02-21T10:51:28.940Z,10.60
2023-02-21T10:53:01.727Z,10.43
2023-02-21T10:54:35.527Z,10.23
2023-02-21T10:56:25.696Z,10.47
2023-02-21T10:58:07.622Z,10.07
2023-02-21T10:59:43.978Z,11.43
2023-02-21T11:01:21.217Z,10.60
2023-02-21T11:02:57.726Z,10.80
2023-02-21T11:04:34.491Z,10.23
2023-02-21T11:06:08.441Z,9.60
2023-02-21T11:07:42.573Z,10.37
2023-02-21T11:09:34.950Z,9.77
2023-02-21T11:11:08.208Z,9.47
2023-02-21T11:12:40.953Z,9.70
2023-02-21T11:14:25.140Z,10.53
2023-02-21T11:16:11.475Z,9.63
2023-02-21T11:17:45.567Z,9.90
2023-02-21T11:19:18.353Z,10.07
2023-02-21T11:20:52.601Z,8.70
2023-02-21T11:22:27.314Z,9.00
2023-02-21T11:24:03.360Z,9.80
2023-02-21T11:25:40.913Z,8.90
2023-02-21T11:27:14.332Z,9.30
2023-02-21T11:28:48.854Z,9.27
2023-02-21T11:30:23.598Z,10.00
2023-02-21T11:31:57.157Z,9.53
2023-02-21T11:33:30.897Z,9.23
2023-02-21T11:35:24.123Z,9.87
2023-02-21T11:37:04.140Z,9.37
2023-02-21T11:38:38.829Z,9.37
2023-02-21T11:40:24.503Z,9.63
2023-02-21T11:42:00.214Z,9.73
2023-02-21T11:43:34.362Z,9.90
2023-02-21T11:45:21.905Z,10.10
2023-02-21T11:47:06.138Z,10.47
2023-02-21T11:48:45.730Z,9.97
2023-02-21T11:50:25.205Z,9.90
2023-02-21T11:52:01.360Z,10.87
2023-02-21T11:53:40.497Z,11.20
2023-02-21T11:55:15.953Z,11.30
2023-02-21T11:56:55.197Z,10.97
2023-02-21T11:58:31.546Z,10.30
2023-02-21T12:00:26.990Z,10.30
2023-02-21T12:02:18.841Z,11.00
2023-02-21T12:04:10.574Z,11.23
2023-02-21T12:05:54.220Z,10.80
2023-02-21T12:07:35.972Z,10.80
2023-02-21T12:09:12.922Z,11.63
2023-02-21T12:10:52.471Z,11.27
2023-02-21T12:12:34.588Z,11.43
2023-02-21T12:14:20.399Z,11.50
2023-02-21T12:16:00.279Z,10.97
2023-02-21T12:18:01.764Z,11.67
2023-02-21T12:19:57.477Z,10.97
2023-02-21T12:21:47.180Z,11.30
2023-02-21T12:23:26.340Z,11.23
2023-02-21T12:25:12.219Z,11.57
2023-02-21T12:26:52.529Z,10.87
2023-02-21T12:28:33.884Z,11.33
2023-02-21T12:30:36.514Z,12.43
2023-02-21T12:32:25.588Z,12.03
2023-02-21T12:34:09.146Z,12.43
2023-02-21T12:36:20.321Z,12.93
2023-02-21T12:38:04.391Z,12.63
2023-02-21T12:39:56.426Z,13.13
2023-02-21T12:41:41.976Z,13.23
2023-02-21T12:43:33.522Z,14.10
2023-02-21T12:45:24.682Z,13.67
2023-02-21T12:47:02.298Z,13.17
2023-02-21T12:48:38.797Z,13.47
2023-02-21T12:50:18.022Z,13.53
2023-02-21T12:51:55.246Z,13.50
2023-02-21T12:53:36.169Z,12.90
2023-02-21T12:55:17.210Z,12.80
2023-02-21T12:56:58.857Z,13.30
2023-02-21T12:58:35.626Z,12.83
2023-02-21T13:00:18.727Z,13.33
2023-02-21T13:01:55.559Z,13.07
2023-02-21T13:03:41.081Z,12.63
2023-02-21T13:05:20.260Z,12.50
2023-02-21T13:06:58.300Z,12.53
2023-02-21T13:08:34.674Z,12.90
2023-02-21T13:10:16.079Z,12.77
2023-02-21T13:11:57.325Z,13.30
2023-02-21T13:13:32.991Z,12.73
2023-02-21T13:15:17.366Z,12.83
2023-02-21T13:16:50.126Z,12.83
2023-02-21T13:18:26.953Z,13.20
2023-02-21T13:20:05.765Z,12.47
2023-02-21T13:21:54.368Z,12.73
2023-02-21T13:23:27.888Z,11.80
2023-02-21T13:25:09.108Z,12.43
2023-02-21T13:27:01.997Z,12.50
2023-02-21T13:28:36.458Z,12.13
2023-02-21T13:30:14.991Z,12.17
2023-02-21T13:31:48.775Z,12.13
2023-02-21T13:33:28.197Z,11.87
2023-02-21T13:35:05.632Z,12.70
2023-02-21T13:36:44.795Z,13.10
2023-02-21T13:38:20.871Z,12.93
2023-02-21T13:40:01.230Z,12.57
2023-02-21T13:41:37.757Z,14.07
2023-02-21T13:43:14.211Z,12.80
2023-02-21T13:44:49.608Z,13.40
2023-02-21T13:46:47.311Z,12.47
2023-02-21T13:48:26.669Z,12.77
2023-02-21T13:50:00.176Z,12.57
2023-02-21T13:51:48.446Z,12.13
2023-02-21T13:53:23.313Z,11.67
2023-02-21T13:55:26.178Z,12.40
2023-02-21T13:56:58.914Z,12.43
2023-02-21T13:58:37.445Z,12.60
2023-02-21T14:00:50.587Z,12.27
2023-02-21T14:02:31.002Z,12.57
2023-02-21T14:04:42.315Z,12.13
2023-02-21T14:06:30.721Z,12.43
2023-02-21T14:08:04.825Z,12.23
2023-02-21T14:09:41.723Z,12.07
2023-02-21T14:11:17.320Z,12.47
2023-02-21T14:12:55.899Z,11.43
2023-02-21T14:14:31.707Z,11.37
2023-02-21T14:16:17.015Z,11.20
2023-02-21T14:17:53.245Z,11.87
2023-02-21T14:19:28.462Z,11.70
2023-02-21T14:21:02.998Z,12.13
2023-02-21T14:22:38.038Z,11.37
2023-02-21T14:24:14.816Z,12.07
2023-02-21T14:26:00.051Z,12.83
2023-02-21T14:27:36.459Z,11.73
2023-02-21T14:29:37.453Z,12.13
2023-02-21T14:31:13.294Z,11.07
2023-02-21T14:32:48.446Z,10.97
2023-02-21T14:34:26.156Z,11.27
2023-02-21T14:36:05.299Z,11.83
2023-02-21T14:37:43.370Z,11.77
2023-02-21T14:39:17.161Z,10.90
2023-02-21T14:41:01.677Z,10.60
2023-02-21T14:42:47.171Z,11.03
2023-02-21T14:44:30.157Z,10.73
2023-02-21T14:46:18.140Z,10.93
2023-02-21T14:48:04.840Z,11.57
2023-02-21T14:49:56.736Z,11.20
2023-02-21T14:51:57.530Z,10.77
2023-02-21T14:54:01.853Z,9.93
2023-02-21T14:55:59.681Z,9.97
2023-02-21T14:58:01.546Z,10.10
2023-02-21T15:00:08.197Z,10.23
2023-02-21T15:01:53.038Z,10.33
2023-02-21T15:03:30.263Z,10.30
2023-02-21T15:05:15.473Z,10.27
2023-02-21T15:07:01.818Z,10.40
2023-02-21T15:08:44.042Z,9.87
2023-02-21T15:10:19.307Z,10.50
2023-02-21T15:11:52.187Z,10.03
2023-02-21T15:13:29.150Z,9.70
2023-02-21T15:15:02.554Z,9.73
2023-02-21T15:16:42.901Z,10.20
2023-02-21T15:18:25.706Z,9.60
2023-02-21T15:20:06.748Z,10.03
2023-02-21T15:21:39.471Z,10.77
2023-02-21T15:23:15.158Z,10.10
2023-02-21T15:25:22.046Z,9.53
2023-02-21T15:27:09.747Z,9.90
2023-02-21T15:28:42.456Z,9.70
2023-02-21T15:30:16.587Z,10.40
2023-02-21T15:31:51.111Z,9.90
2023-02-21T15:33:26.420Z,9.53
2023-02-21T15:34:59.215Z,9.97
2023-02-21T15:36:33.337Z,9.73
2023-02-21T15:38:11.981Z,10.33
2023-02-21T15:39:52.506Z,9.90
2023-02-21T15:41:30.838Z,9.90
2023-02-21T15:43:04.813Z,9.67
2023-02-21T15:44:41.135Z,9.57
2023-02-21T15:46:19.242Z,10.60
2023-02-21T15:47:52.726Z,9.93
2023-02-21T15:49:28.671Z,9.90
2023-02-21T15:51:04.257Z,10.03
2023-02-21T15:52:39.092Z,10.03
2023-02-21T15:54:24.695Z,9.07
2023-02-21T15:56:17.724Z,9.67
2023-02-21T15:58:01.133Z,10.27
2023-02-21T15:59:34.525Z,9.37
2023-02-21T16:01:09.248Z,9.90
2023-02-21T16:02:42.025Z,10.17
2023-02-21T16:04:19.677Z,9.03
2023-02-21T16:05:52.476Z,9.50
2023-02-21T16:07:33.752Z,10.00
2023-02-21T16:09:17.909Z,9.53
2023-02-21T16:10:51.054Z,10.17
2023-02-21T16:12:30.559Z,10.20
2023-02-21T16:14:04.899Z,9.33
2023-02-21T16:15:40.583Z,9.70
2023-02-21T16:17:23.343Z,9.27
2023-02-21T16:18:58.425Z,9.27
2023-02-21T16:20:33.927Z,10.07
2023-02-21T16:22:15.062Z,8.50
2023-02-21T16:23:47.746Z,10.10
2023-02-21T16:25:22.693Z,9.40
2023-02-21T16:27:06.472Z,10.30
2023-02-21T16:28:40.434Z,10.03
2023-02-21T16:30:17.322Z,9.63
2023-02-21T16:31:50.784Z,9.70
2023-02-21T16:33:23.555Z,9.53
2023-02-21T16:34:56.257Z,9.97
2023-02-21T16:36:31.210Z,9.10
2023-02-21T16:38:04.274Z,9.73
2023-02-21T16:39:37.234Z,10.03
2023-02-21T16:41:15.989Z,9.80
2023-02-21T16:42:49.279Z,9.47
2023-02-21T16:44:21.965Z,9.83
2023-02-21T16:45:58.039Z,10.23
2023-02-21T16:47:30.752Z,9.90
2023-02-21T16:49:03.548Z,9.43
2023-02-21T16:50:38.656Z,10.60
2023-02-21T16:52:14.634Z,9.50
2023-02-21T16:53:47.429Z,10.63
2023-02-21T16:55:20.758Z,10.13
2023-02-21T16:56:54.805Z,9.63
2023-02-21T16:58:30.597Z,9.90
2023-02-21T17:00:03.955Z,9.90
2023-02-21T17:01:40.176Z,9.53
2023-02-21T17:03:12.962Z,10.03
2023-02-21T17:04:45.661Z,10.63
2023-02-21T17:06:21.716Z,11.27
2023-02-21T17:07:55.571Z,12.40
2023-02-21T17:09:30.866Z,13.00
2023-02-21T17:11:03.681Z,11.73
2023-02-21T17:12:36.397Z,11.10
2023-02-21T17:14:09.371Z,11.37
2023-02-21T17:15:42.220Z,11.90
2023-02-21T17:17:17.717Z,12.17
2023-02-21T17:18:50.476Z,13.70
2023-02-21T17:20:23.992Z,13.20
2023-02-21T17:21:58.077Z,11.23
2023-02-21T17:23:31.291Z,11.33
2023-02-21T17:25:04.119Z,12.43
2023-02-21T17:26:37.112Z,12.50
2023-02-21T17:28:09.829Z,12.17
2023-02-21T17:29:42.575Z,12.57
2023-02-21T17:31:18.692Z,12.53
2023-02-21T17:32:53.611Z,12.37
2023-02-21T17:34:26.830Z,11.53
2023-02-21T17:35:59.679Z,12.33
2023-02-21T17:37:32.533Z,11.23
2023-02-21T17:39:06.111Z,11.43
2023-02-21T17:40:38.823Z,11.33
2023-02-21T17:42:12.147Z,11.70
2023-02-21T17:43:44.931Z,11.70
2023-02-21T17:45:19.608Z,11.77
2023-02-21T17:46:54.006Z,12.13
2023-02-21T17:48:28.080Z,12.67
2023-02-21T17:50:02.832Z,11.83
2023-02-21T17:51:35.782Z,12.50
2023-02-21T17:53:08.717Z,12.80
2023-02-21T17:54:41.842Z,12.37
2023-02-21T17:56:18.589Z,12.23
2023-02-21T17:57:51.281Z,11.83
2023-02-21T17:59:24.032Z,12.53
2023-02-21T18:00:56.876Z,11.83
2023-02-21T18:02:29.556Z,11.97
2023-02-21T18:04:03.658Z,11.97
2023-02-21T18:05:37.568Z,12.43
2023-02-21T18:07:12.030Z,12.27
2023-02-21T18:08:46.959Z,11.77
2023-02-21T18:10:22.070Z,11.43
2023-02-21T18:11:56.542Z,11.97
2023-02-21T18:13:29.262Z,12.73
2023-02-21T18:15:02.143Z,12.93
2023-02-21T18:16:34.970Z,13.73
2023-02-21T18:18:08.389Z,13.13
2023-02-21T18:19:42.470Z,14.47
2023-02-21T18:21:15.864Z,14.73
2023-02-21T18:22:48.798Z,13.63
2023-02-21T18:24:22.956Z,13.70
2023-02-21T18:25:55.728Z,13.70
2023-02-21T18:27:28.515Z,13.80
2023-02-21T18:29:01.207Z,13.57
2023-02-21T18:30:33.985Z,14.23
2023-02-21T18:32:06.766Z,17.23
2023-02-21T18:33:39.466Z,16.53
2023-02-21T18:35:13.575Z,15.27
2023-02-21T18:36:49.126Z,14.13
2023-02-21T18:38:22.354Z,13.10
2023-02-21T18:39:56.142Z,12.93
2023-02-21T18:41:29.138Z,12.90
2023-02-21T18:43:02.611Z,13.10
2023-02-21T18:44:35.705Z,13.20
2023-02-21T18:46:11.803Z,13.10
2023-02-21T18:47:44.523Z,13.37
2023-02-21T18:49:17.461Z,13.77
2023-02-21T18:50:51.996Z,13.27
2023-02-21T18:52:24.719Z,13.47
2023-02-21T18:53:57.415Z,13.80
2023-02-21T18:55:30.150Z,13.70
2023-02-21T18:57:03.078Z,14.67
2023-02-21T18:58:35.802Z,14.77
2023-02-21T19:00:10.405Z,13.90
2023-02-21T19:01:43.495Z,14.57
2023-02-21T19:03:16.280Z,15.27
2023-02-21T19:04:48.960Z,17.00
2023-02-21T19:06:24.807Z,15.47
2023-02-21T19:07:58.319Z,15.83
2023-02-21T19:09:31.599Z,14.27
2023-02-21T19:11:04.444Z,13.37
2023-02-21T19:12:37.172Z,13.63
2023-02-21T19:14:09.969Z,14.30
2023-02-21T19:15:44.022Z,14.93
2023-02-21T19:17:16.854Z,14.10
2023-02-21T19:18:51.302Z,14.07
2023-02-21T19:20:24.094Z,13.57
2023-02-21T19:21:58.395Z,13.77
2023-02-21T19:23:31.070Z,14.10
2023-02-21T19:25:03.941Z,14.33
2023-02-21T19:26:36.742Z,14.30
2023-02-21T19:28:09.447Z,14.07
2023-02-21T19:29:42.461Z,13.83
2023-02-21T19:31:19.060Z,13.73
2023-02-21T19:32:52.019Z,13.60
2023-02-21T19:34:24.731Z,13.73
2023-02-21T19:35:57.417Z,13.30
2023-02-21T19:37:31.475Z,14.63
2023-02-21T19:39:04.752Z,13.77
2023-02-21T19:40:37.881Z,14.20
2023-02-21T19:42:10.872Z,13.13
2023-02-21T19:43:43.665Z,13.53
2023-02-21T19:45:17.605Z,14.30
2023-02-21T19:46:50.297Z,14.20
2023-02-21T19:48:22.990Z,14.37
2023-02-21T19:49:55.707Z,14.83
2023-02-21T19:51:30.562Z,15.13
2023-02-21T19:53:04.963Z,14.10
2023-02-21T19:54:37.707Z,14.68
2023-02-21T19:56:10.447Z,13.57
2023-02-21T19:57:43.142Z,13.47
2023-02-21T19:59:15.823Z,12.67
2023-02-21T20:00:49.766Z,13.38
2023-02-21T20:02:22.556Z,12.70
2023-02-21T20:03:55.299Z,12.27
2023-02-21T20:05:28.142Z,12.73
2023-02-21T20:07:00.821Z,12.07
2023-02-21T20:08:34.935Z,11.90
2023-02-21T20:10:07.933Z,11.77
2023-02-21T20:11:40.651Z,10.80
2023-02-21T20:13:13.330Z,12.03
2023-02-21T20:14:48.558Z,12.30
2023-02-21T20:16:22.386Z,12.70
2023-02-21T20:17:55.721Z,13.00
2023-02-21T20:19:29.959Z,13.03
2023-02-21T20:21:02.805Z,12.57
2023-02-21T20:22:35.540Z,12.68
2023-02-21T20:24:10.289Z,11.85
2023-02-21T20:25:43.199Z,12.87
2023-02-21T20:27:16.762Z,12.33
2023-02-21T20:28:49.897Z,12.83
2023-02-21T20:30:24.910Z,12.23
2023-02-21T20:31:59.902Z,12.02
2023-02-21T20:33:32.671Z,12.50
2023-02-21T20:35:05.686Z,11.93
2023-02-21T20:36:41.107Z,11.82
2023-02-21T20:38:13.785Z,11.90
2023-02-21T20:39:49.718Z,12.25
2023-02-21T20:41:22.760Z,12.13
2023-02-21T20:42:55.640Z,11.73
2023-02-21T20:44:33.927Z,11.27
2023-02-21T20:46:06.768Z,12.47
2023-02-21T20:47:39.830Z,12.70
2023-02-21T20:49:14.296Z,12.57
2023-02-21T20:50:47.058Z,12.20
2023-02-21T20:52:19.751Z,12.88
2023-02-21T20:53:52.472Z,12.03
2023-02-21T20:55:26.500Z,12.75
2023-02-21T20:56:59.267Z,11.95
2023-02-21T20:58:31.967Z,12.70
2023-02-21T21:00:09.654Z,13.02
2023-02-21T21:01:47.872Z,14.07
2023-02-21T21:03:20.615Z,13.93
2023-02-21T21:04:54.320Z,14.07
2023-02-21T21:06:27.087Z,13.13
2023-02-21T21:07:59.941Z,12.75
2023-02-21T21:09:34.922Z,15.75
2023-02-21T21:11:09.606Z,15.90
2023-02-21T21:12:43.275Z,15.30
2023-02-21T21:14:16.622Z,18.10